createdAt,value
2022-10-17T00:00:06.264Z,100.00
2022-10-17T00:02:33.015Z,100.00
2022-10-17T00:05:01.835Z,100.00
2022-10-17T00:07:28.521Z,100.00
2022-10-17T00:09:57.219Z,100.00
2022-10-17T00:12:25.741Z,100.00
2022-10-17T00:14:52.273Z,100.00
2022-10-17T00:17:18.808Z,100.00
2022-10-17T00:19:45.390Z,100.00
2022-10-17T00:22:12.901Z,100.00
2022-10-17T00:24:45.650Z,100.00
2022-10-17T00:27:14.344Z,100.00
2022-10-17T00:29:40.945Z,100.00
2022-10-17T00:32:07.440Z,100.00
2022-10-17T00:34:40.499Z,100.00
2022-10-17T00:37:07.008Z,100.00
2022-10-17T00:39:33.514Z,100.00
2022-10-17T00:42:01.759Z,100.00
2022-10-17T00:44:31.126Z,100.00
2022-10-17T00:47:04.403Z,100.00
2022-10-17T00:49:34.456Z,100.00
2022-10-17T00:52:06.284Z,100.00
2022-10-17T00:54:35.907Z,100.00
2022-10-17T00:57:03.134Z,100.00
2022-10-17T00:59:33.311Z,100.00
2022-10-17T01:02:15.728Z,100.00
2022-10-17T01:04:51.092Z,100.00
2022-10-17T01:07:17.921Z,100.00
2022-10-17T01:09:46.384Z,100.00
2022-10-17T01:12:22.260Z,100.00
2022-10-17T01:14:58.402Z,100.00
2022-10-17T01:17:49.817Z,100.00
2022-10-17T01:20:46.099Z,100.00
2022-10-17T01:23:34.657Z,100.00
2022-10-17T01:26:18.018Z,100.00
2022-10-17T01:29:20.195Z,100.00
2022-10-17T01:32:13.068Z,100.00
2022-10-17T01:34:47.936Z,100.00
2022-10-17T01:37:35.569Z,100.00
2022-10-17T01:40:11.389Z,100.00
2022-10-17T01:42:42.465Z,100.00
2022-10-17T01:45:21.379Z,100.00
2022-10-17T01:47:51.612Z,100.00
2022-10-17T01:50:30.334Z,100.00
2022-10-17T01:53:03.991Z,100.00
2022-10-17T01:55:43.295Z,100.00
2022-10-17T01:58:36.752Z,100.00
2022-10-17T02:01:07.721Z,100.00
2022-10-17T02:03:35.605Z,100.00
2022-10-17T02:06:04.669Z,100.00
2022-10-17T02:09:46.820Z,100.00
2022-10-17T02:12:32.283Z,100.00
2022-10-17T02:15:19.173Z,100.00
2022-10-17T02:18:15.853Z,100.00
2022-10-17T02:20:52.551Z,100.00
2022-10-17T02:23:37.937Z,100.00
2022-10-17T02:26:22.611Z,100.00
2022-10-17T02:29:16.661Z,100.00
2022-10-17T02:31:56.861Z,100.00
2022-10-17T02:34:32.293Z,100.00
2022-10-17T02:37:02.205Z,100.00
2022-10-17T02:39:30.507Z,100.00
2022-10-17T02:42:00.913Z,100.00
2022-10-17T02:44:29.359Z,100.00
2022-10-17T02:47:03.622Z,100.00
2022-10-17T02:49:37.877Z,100.00
2022-10-17T02:52:16.494Z,100.00
2022-10-17T02:54:51.527Z,100.00
2022-10-17T02:57:56.053Z,100.00
2022-10-17T03:00:26.804Z,100.00
2022-10-17T03:02:54.600Z,100.00
2022-10-17T03:05:31.294Z,100.00
2022-10-17T03:07:57.999Z,100.00
2022-10-17T03:10:24.502Z,100.00
2022-10-17T03:12:52.819Z,100.00
2022-10-17T03:15:19.337Z,100.00
2022-10-17T03:20:24.203Z,100.00
2022-10-17T03:22:50.725Z,100.00
2022-10-17T03:25:17.261Z,100.00
2022-10-17T03:27:43.858Z,100.00
2022-10-17T03:30:10.967Z,100.00
2022-10-17T03:32:37.703Z,100.00
2022-10-17T03:35:14.819Z,100.00
2022-10-17T03:37:41.599Z,100.00
2022-10-17T03:40:08.611Z,100.00
2022-10-17T03:42:35.132Z,100.00
2022-10-17T03:45:01.898Z,100.00
2022-10-17T03:47:29.351Z,100.00
2022-10-17T03:49:56.189Z,100.00
2022-10-17T03:52:22.860Z,100.00
2022-10-17T03:54:50.700Z,100.00
2022-10-17T03:57:18.486Z,100.00
2022-10-17T03:59:45.174Z,100.00
2022-10-17T04:02:11.644Z,100.00
2022-10-17T04:04:38.298Z,100.00
2022-10-17T04:07:04.792Z,100.00
2022-10-17T04:09:31.313Z,100.00
2022-10-17T04:11:59.696Z,100.00
2022-10-17T04:14:26.352Z,100.00
2022-10-17T04:16:53.610Z,100.00
2022-10-17T04:19:22.073Z,100.00
2022-10-17T04:21:48.614Z,100.00
2022-10-17T04:24:15.442Z,100.00
2022-10-17T04:26:43.673Z,100.00
2022-10-17T04:29:11.086Z,100.00
2022-10-17T04:31:37.899Z,100.00
2022-10-17T04:34:04.620Z,100.00
2022-10-17T04:36:31.082Z,100.00
2022-10-17T04:38:57.618Z,100.00
2022-10-17T04:41:31.855Z,100.00
2022-10-17T04:43:58.382Z,100.00
2022-10-17T04:46:24.881Z,100.00
2022-10-17T04:48:51.509Z,100.00
2022-10-17T04:51:20.741Z,100.00
2022-10-17T04:53:51.035Z,100.00
2022-10-17T04:56:22.138Z,100.00
2022-10-17T04:58:49.264Z,100.00
2022-10-17T05:01:23.041Z,100.00
2022-10-17T05:03:51.863Z,100.00
2022-10-17T05:06:23.941Z,100.00
2022-10-17T05:08:50.911Z,100.00
2022-10-17T05:11:20.918Z,100.00
2022-10-17T05:14:01.147Z,100.00
2022-10-17T05:16:30.407Z,100.00
2022-10-17T05:18:59.767Z,100.00
2022-10-17T05:21:27.627Z,100.00
2022-10-17T05:23:54.342Z,100.00
2022-10-17T05:26:21.789Z,100.00
2022-10-17T05:28:48.380Z,100.00
2022-10-17T05:31:15.308Z,100.00
2022-10-17T05:33:41.865Z,100.00
2022-10-17T05:36:08.940Z,100.00
2022-10-17T05:38:36.136Z,100.00
2022-10-17T05:41:05.795Z,100.00
2022-10-17T05:43:33.176Z,100.00
2022-10-17T05:46:05.356Z,100.00
2022-10-17T05:48:32.134Z,100.00
2022-10-17T05:51:00.495Z,100.00
2022-10-17T05:53:33.039Z,100.00
2022-10-17T05:56:01.251Z,100.00
2022-10-17T06:01:17.053Z,100.00
2022-10-17T06:03:45.889Z,100.00
2022-10-17T06:06:14.470Z,100.00
2022-10-17T06:08:41.229Z,100.00
2022-10-17T06:11:10.161Z,100.00
2022-10-17T06:13:38.076Z,100.00
2022-10-17T06:16:04.907Z,100.00
2022-10-17T06:18:31.425Z,100.00
2022-10-17T06:21:12.427Z,100.00
2022-10-17T06:23:39.288Z,98.22
2022-10-17T06:26:07.024Z,97.23
2022-10-17T06:28:36.141Z,94.56
2022-10-17T06:31:11.468Z,92.21
2022-10-17T06:33:40.293Z,90.19
2022-10-17T06:36:08.165Z,89.58
2022-10-17T06:38:35.439Z,87.79
2022-10-17T06:41:13.636Z,86.50
2022-10-17T06:43:43.336Z,86.51
2022-10-17T06:46:10.115Z,86.82
2022-10-17T06:48:43.241Z,84.64
2022-10-17T06:51:11.373Z,86.55
2022-10-17T06:53:40.430Z,84.00
2022-10-17T06:56:08.685Z,84.32
2022-10-17T06:58:39.109Z,82.14
2022-10-17T07:01:17.706Z,82.77
2022-10-17T07:03:48.015Z,83.50
2022-10-17T07:06:18.051Z,84.21
2022-10-17T07:08:45.651Z,84.90
2022-10-17T07:11:13.871Z,83.51
2022-10-17T07:13:40.654Z,80.52
2022-10-17T07:16:18.129Z,80.08
2022-10-17T07:18:44.719Z,79.67
2022-10-17T07:21:11.586Z,78.35
2022-10-17T07:23:38.778Z,77.00
2022-10-17T07:26:08.510Z,79.91
2022-10-17T07:28:36.896Z,77.77
2022-10-17T07:31:05.986Z,78.30
2022-10-17T07:33:32.871Z,76.64
2022-10-17T07:36:00.752Z,73.49
2022-10-17T07:38:28.650Z,73.67
2022-10-17T07:40:56.966Z,73.17
2022-10-17T07:43:24.820Z,70.06
2022-10-17T07:45:58.047Z,66.34
2022-10-17T07:48:25.442Z,71.73
2022-10-17T07:50:52.122Z,70.19
2022-10-17T07:53:19.534Z,69.00
2022-10-17T07:55:46.535Z,69.88
2022-10-17T07:58:14.099Z,67.39
2022-10-17T08:00:42.668Z,68.74
2022-10-17T08:03:10.937Z,63.63
2022-10-17T08:05:37.456Z,70.61
2022-10-17T08:08:06.302Z,67.15
2022-10-17T08:10:37.181Z,67.44
2022-10-17T08:13:03.692Z,64.35
2022-10-17T08:15:32.157Z,64.29
2022-10-17T08:17:59.370Z,66.98
2022-10-17T08:20:26.453Z,65.69
2022-10-17T08:22:56.502Z,63.99
2022-10-17T08:25:23.487Z,67.12
2022-10-17T08:27:50.215Z,65.39
2022-10-17T08:30:17.261Z,68.28
2022-10-17T08:32:43.975Z,64.82
2022-10-17T08:35:14.698Z,65.88
2022-10-17T08:37:43.153Z,63.60
2022-10-17T08:40:17.562Z,66.30
2022-10-17T08:43:13.480Z,67.52
2022-10-17T08:45:54.736Z,66.88
2022-10-17T08:48:30.293Z,65.82
2022-10-17T08:51:17.306Z,63.66
2022-10-17T08:53:54.772Z,62.23
2022-10-17T08:56:44.190Z,62.27
2022-10-17T08:59:18.349Z,65.79
2022-10-17T09:01:51.046Z,63.65
2022-10-17T09:04:27.554Z,65.07
2022-10-17T09:07:05.301Z,64.01
2022-10-17T09:09:44.170Z,62.31
2022-10-17T09:12:16.780Z,63.15
2022-10-17T09:15:24.524Z,61.03
2022-10-17T09:18:03.236Z,61.29
2022-10-17T09:20:42.387Z,62.92
2022-10-17T09:23:18.052Z,61.93
2022-10-17T09:28:20.298Z,64.98
2022-10-17T09:30:54.356Z,63.93
2022-10-17T09:33:35.973Z,62.19
2022-10-17T09:36:29.479Z,60.09
2022-10-17T09:39:12.999Z,59.64
2022-10-17T09:41:47.621Z,58.58
2022-10-17T09:44:21.954Z,60.46
2022-10-17T09:47:00.328Z,60.10
2022-10-17T09:49:33.168Z,60.77
2022-10-17T09:52:03.177Z,61.02
2022-10-17T09:54:41.456Z,57.45
2022-10-17T09:57:10.512Z,57.39
2022-10-17T09:59:41.145Z,57.59
2022-10-17T10:02:27.750Z,56.88
2022-10-17T10:05:04.548Z,53.29
2022-10-17T10:07:37.796Z,57.61
2022-10-17T10:10:22.830Z,56.58
2022-10-17T10:13:16.310Z,55.42
2022-10-17T10:15:45.764Z,57.21
2022-10-17T10:18:36.054Z,55.01
2022-10-17T10:21:13.519Z,56.10
2022-10-17T10:23:47.186Z,54.41
2022-10-17T10:26:25.978Z,54.79
2022-10-17T10:29:00.852Z,55.32
2022-10-17T10:31:32.036Z,55.65
2022-10-17T10:34:07.903Z,54.48
2022-10-17T10:37:05.977Z,54.41
2022-10-17T10:39:43.829Z,53.88
2022-10-17T10:42:28.619Z,52.82
2022-10-17T10:45:00.043Z,54.10
2022-10-17T10:47:32.442Z,52.58
2022-10-17T10:50:25.683Z,52.79
2022-10-17T10:56:51.288Z,52.58
2022-10-17T10:59:36.467Z,52.38
2022-10-17T11:02:12.844Z,52.35
2022-10-17T11:05:30.472Z,50.95
2022-10-17T11:08:24.439Z,51.90
2022-10-17T11:11:23.874Z,51.55
2022-10-17T11:14:02.409Z,51.61
2022-10-17T11:16:28.930Z,53.31
2022-10-17T11:19:06.488Z,52.82
2022-10-17T11:21:48.809Z,52.84
2022-10-17T11:24:22.915Z,52.30
2022-10-17T11:26:56.736Z,53.37
2022-10-17T11:29:30.471Z,51.95
2022-10-17T11:32:11.688Z,52.49
2022-10-17T11:34:48.130Z,53.66
2022-10-17T11:37:23.196Z,53.56
2022-10-17T11:40:31.211Z,51.31
2022-10-17T11:43:02.108Z,52.31
2022-10-17T11:45:39.164Z,52.45
2022-10-17T11:48:13.329Z,53.07
2022-10-17T11:53:44.964Z,52.70
2022-10-17T11:56:12.886Z,53.67
2022-10-17T11:58:53.369Z,53.80
2022-10-17T12:01:36.366Z,54.14
2022-10-17T12:04:21.019Z,54.71
2022-10-17T12:07:11.229Z,52.19
2022-10-17T12:09:52.451Z,54.09
2022-10-17T12:12:33.413Z,56.07
2022-10-17T12:15:11.802Z,54.96
2022-10-17T12:17:41.170Z,55.50
2022-10-17T12:20:37.565Z,53.62
2022-10-17T12:23:04.230Z,54.85
2022-10-17T12:28:17.709Z,55.35
2022-10-17T12:31:06.227Z,53.61
2022-10-17T12:33:50.111Z,55.34
2022-10-17T12:36:22.617Z,55.31
2022-10-17T12:38:50.552Z,55.19
2022-10-17T12:41:39.369Z,54.87
2022-10-17T12:47:17.787Z,54.45
2022-10-17T12:49:53.113Z,54.23
2022-10-17T12:52:26.817Z,54.08
2022-10-17T12:55:13.418Z,53.16
2022-10-17T12:57:51.605Z,52.96
2022-10-17T13:03:22.068Z,53.95
2022-10-17T13:05:57.607Z,52.17
2022-10-17T13:08:32.047Z,53.09
2022-10-17T13:10:58.761Z,51.87
2022-10-17T13:13:39.402Z,50.32
2022-10-17T13:16:08.981Z,53.24
2022-10-17T13:18:35.700Z,53.96
2022-10-17T13:21:11.477Z,53.93
2022-10-17T13:23:38.202Z,54.18
2022-10-17T13:26:06.035Z,54.26
2022-10-17T13:28:37.072Z,54.18
2022-10-17T13:31:05.746Z,53.83
2022-10-17T13:33:40.034Z,52.45
2022-10-17T13:36:17.599Z,54.50
2022-10-17T13:38:48.757Z,54.18
2022-10-17T13:41:36.178Z,52.91
2022-10-17T13:44:11.681Z,51.98
2022-10-17T13:46:40.037Z,52.22
2022-10-17T13:49:35.030Z,50.50
2022-10-17T13:52:03.946Z,51.83
2022-10-17T13:54:35.412Z,51.69
2022-10-17T13:57:05.180Z,52.26
2022-10-17T13:59:40.014Z,50.98
2022-10-17T14:02:15.573Z,51.92
2022-10-17T14:05:11.837Z,51.24
2022-10-17T14:08:05.858Z,51.84
2022-10-17T14:10:27.635Z,51.36
2022-10-17T14:12:56.732Z,50.86
2022-10-17T14:15:27.831Z,51.40
2022-10-17T14:17:59.156Z,51.28
2022-10-17T14:21:19.482Z,51.52
2022-10-17T14:23:41.174Z,47.90
2022-10-17T14:26:15.142Z,49.56
2022-10-17T14:28:45.330Z,50.94
2022-10-17T14:31:17.778Z,50.34
2022-10-17T14:33:51.060Z,48.75
2022-10-17T14:36:23.656Z,49.68
2022-10-17T14:38:52.209Z,48.96
2022-10-17T14:44:26.104Z,47.03
2022-10-17T14:46:57.853Z,49.63
2022-10-17T14:49:36.276Z,47.98
2022-10-17T14:52:18.972Z,45.97
2022-10-17T14:54:54.965Z,47.25
2022-10-17T14:57:24.225Z,48.91
2022-10-17T14:59:55.445Z,50.13
2022-10-17T15:02:29.886Z,49.98
2022-10-17T15:05:00.664Z,49.87
2022-10-17T15:07:29.595Z,50.62
2022-10-17T15:09:56.328Z,50.25
2022-10-17T15:12:25.625Z,49.23
2022-10-17T15:14:53.033Z,49.35
2022-10-17T15:17:26.326Z,50.73
2022-10-17T15:19:53.200Z,51.25
2022-10-17T15:22:19.768Z,52.11
2022-10-17T15:24:50.829Z,52.79
2022-10-17T15:27:24.897Z,52.76
2022-10-17T15:29:51.792Z,52.94
2022-10-17T15:32:20.427Z,53.72
2022-10-17T15:34:46.933Z,53.97
2022-10-17T15:37:21.220Z,54.66
2022-10-17T15:39:54.530Z,54.50
2022-10-17T15:42:23.410Z,55.45
2022-10-17T15:44:50.378Z,56.13
2022-10-17T15:47:37.612Z,55.89
2022-10-17T15:50:06.074Z,57.56
2022-10-17T15:52:32.940Z,57.88
2022-10-17T15:55:04.322Z,57.26
2022-10-17T15:57:36.343Z,57.93
2022-10-17T16:00:04.786Z,58.04
2022-10-17T16:02:31.281Z,58.27
2022-10-17T16:04:57.775Z,59.55
2022-10-17T16:07:26.527Z,61.85
2022-10-17T16:09:53.226Z,62.72
2022-10-17T16:12:30.537Z,63.76
2022-10-17T16:14:57.396Z,64.55
2022-10-17T16:17:23.909Z,65.55
2022-10-17T16:19:56.945Z,66.35
2022-10-17T16:22:36.687Z,67.59
2022-10-17T16:25:17.177Z,68.45
2022-10-17T16:27:47.788Z,69.86
2022-10-17T16:30:14.981Z,70.99
2022-10-17T16:32:43.855Z,72.49
2022-10-17T16:35:20.746Z,73.06
2022-10-17T16:37:57.886Z,73.91
2022-10-17T16:40:25.711Z,74.05
2022-10-17T16:42:52.193Z,74.69
2022-10-17T16:45:21.676Z,75.26
2022-10-17T16:47:49.072Z,75.46
2022-10-17T16:50:16.146Z,76.13
2022-10-17T16:52:44.937Z,77.43
2022-10-17T16:55:11.527Z,77.25
2022-10-17T16:57:38.414Z,77.59
2022-10-17T17:00:08.484Z,78.17
2022-10-17T17:02:35.141Z,78.84
2022-10-17T17:05:01.747Z,79.17
2022-10-17T17:07:29.855Z,79.25
2022-10-17T17:09:56.730Z,79.82
2022-10-17T17:12:25.661Z,80.17
2022-10-17T17:14:54.433Z,80.72
2022-10-17T17:17:37.169Z,81.24
2022-10-17T17:20:07.929Z,82.12
2022-10-17T17:22:37.759Z,81.98
2022-10-17T17:25:07.836Z,81.86
2022-10-17T17:27:34.536Z,82.51
2022-10-17T17:30:01.151Z,82.71
2022-10-17T17:32:27.654Z,83.60
2022-10-17T17:34:54.614Z,83.54
2022-10-17T17:37:23.002Z,84.32
2022-10-17T17:39:49.514Z,84.55
2022-10-17T17:42:17.838Z,84.90
2022-10-17T17:44:45.079Z,85.60
2022-10-17T17:47:11.606Z,85.99
2022-10-17T17:49:42.693Z,86.85
2022-10-17T17:52:09.208Z,87.81
2022-10-17T17:54:38.602Z,88.40
2022-10-17T17:57:09.191Z,88.36
2022-10-17T17:59:35.719Z,87.93
2022-10-17T18:02:06.318Z,88.07
2022-10-17T18:04:35.234Z,89.08
2022-10-17T18:07:01.816Z,89.39
2022-10-17T18:09:28.272Z,90.07
2022-10-17T18:12:00.131Z,91.28
2022-10-17T18:14:30.518Z,92.28
2022-10-17T18:16:56.966Z,92.89
2022-10-17T18:19:28.763Z,92.92
2022-10-17T18:21:55.330Z,94.09
2022-10-17T18:24:22.042Z,95.04
2022-10-17T18:26:59.046Z,94.48
2022-10-17T18:29:26.827Z,95.99
2022-10-17T18:31:53.630Z,96.56
2022-10-17T18:34:20.363Z,97.92
2022-10-17T18:36:47.098Z,97.68
2022-10-17T18:39:17.217Z,97.68
2022-10-17T18:41:43.876Z,97.86
2022-10-17T18:44:12.628Z,98.04
2022-10-17T18:46:42.788Z,97.72
2022-10-17T18:49:11.203Z,97.38
2022-10-17T18:51:37.742Z,97.19
2022-10-17T18:54:04.308Z,97.70
2022-10-17T18:56:34.453Z,98.11
2022-10-17T18:59:01.229Z,99.12
2022-10-17T19:01:28.198Z,99.23
2022-10-17T19:03:59.348Z,99.12
2022-10-17T19:06:28.369Z,99.71
2022-10-17T19:08:55.263Z,100.00
2022-10-17T19:11:26.328Z,100.00
2022-10-17T19:13:54.025Z,100.00
2022-10-17T19:16:23.991Z,100.00
2022-10-17T19:18:52.493Z,100.00
2022-10-17T19:21:22.121Z,100.00
2022-10-17T19:23:51.316Z,100.00
2022-10-17T19:26:20.395Z,100.00
2022-10-17T19:28:47.801Z,100.00
2022-10-17T19:31:17.001Z,100.00
2022-10-17T19:33:52.064Z,100.00
2022-10-17T19:36:25.403Z,100.00
2022-10-17T19:39:01.214Z,100.00
2022-10-17T19:41:28.339Z,100.00
2022-10-17T19:43:54.921Z,100.00
2022-10-17T19:46:25.851Z,100.00
2022-10-17T19:48:53.208Z,100.00
2022-10-17T19:51:24.430Z,100.00
2022-10-17T19:53:52.265Z,100.00
2022-10-17T19:56:20.631Z,100.00
2022-10-17T19:58:48.774Z,100.00
2022-10-17T20:01:20.736Z,100.00
2022-10-17T20:03:47.511Z,100.00
2022-10-17T20:06:15.006Z,100.00
2022-10-17T20:08:52.506Z,100.00
2022-10-17T20:11:25.133Z,100.00
2022-10-17T20:13:54.720Z,100.00
2022-10-17T20:16:26.355Z,100.00
2022-10-17T20:18:56.026Z,100.00
2022-10-17T20:21:27.221Z,100.00
2022-10-17T20:23:56.237Z,100.00
2022-10-17T20:26:37.165Z,100.00
2022-10-17T20:29:11.199Z,100.00
2022-10-17T20:31:42.824Z,100.00
2022-10-17T20:34:14.933Z,100.00
2022-10-17T20:36:41.925Z,100.00
2022-10-17T20:39:10.960Z,100.00
2022-10-17T20:41:39.326Z,100.00
2022-10-17T20:44:06.995Z,100.00
2022-10-17T20:46:41.596Z,100.00
2022-10-17T20:49:15.041Z,100.00
2022-10-17T20:51:41.876Z,100.00
2022-10-17T20:54:09.053Z,100.00
2022-10-17T20:56:37.903Z,100.00
2022-10-17T20:59:12.213Z,100.00
2022-10-17T21:01:50.246Z,100.00
2022-10-17T21:04:44.610Z,100.00
2022-10-17T21:07:09.277Z,100.00
2022-10-17T21:09:37.718Z,100.00
2022-10-17T21:12:05.387Z,100.00
2022-10-17T21:14:33.532Z,100.00
2022-10-17T21:17:04.691Z,100.00
2022-10-17T21:19:32.162Z,100.00
2022-10-17T21:21:58.877Z,100.00
2022-10-17T21:24:25.427Z,100.00
2022-10-17T21:26:55.620Z,100.00
2022-10-17T21:29:23.592Z,100.00
2022-10-17T21:31:50.983Z,100.00
2022-10-17T21:34:21.190Z,100.00
2022-10-17T21:36:50.294Z,100.00
2022-10-17T21:39:17.261Z,100.00
2022-10-17T21:41:44.939Z,100.00
2022-10-17T21:44:17.486Z,100.00
2022-10-17T21:46:44.552Z,100.00
2022-10-17T21:49:13.086Z,100.00
2022-10-17T21:51:40.468Z,100.00
2022-10-17T21:54:07.722Z,100.00
2022-10-17T21:56:35.373Z,100.00
2022-10-17T21:59:03.121Z,100.00
2022-10-17T22:01:39.297Z,100.00
2022-10-17T22:04:10.201Z,100.00
2022-10-17T22:06:40.788Z,100.00
2022-10-17T22:09:21.788Z,100.00
2022-10-17T22:11:51.065Z,100.00
2022-10-17T22:14:19.661Z,100.00
2022-10-17T22:16:49.170Z,100.00
2022-10-17T22:19:18.750Z,100.00
2022-10-17T22:21:45.527Z,100.00
2022-10-17T22:24:16.507Z,100.00
2022-10-17T22:26:43.185Z,100.00
2022-10-17T22:29:10.207Z,100.00
2022-10-17T22:31:49.181Z,100.00
2022-10-17T22:34:17.953Z,100.00
2022-10-17T22:36:44.717Z,100.00
2022-10-17T22:39:13.735Z,100.00
2022-10-17T22:41:40.437Z,100.00
2022-10-17T22:44:07.058Z,100.00
2022-10-17T22:46:36.114Z,100.00
2022-10-17T22:49:02.822Z,100.00
2022-10-17T22:51:29.654Z,100.00
2022-10-17T22:53:58.284Z,100.00
2022-10-17T22:56:24.868Z,100.00
2022-10-17T22:58:51.988Z,100.00
2022-10-17T23:01:24.886Z,100.00
2022-10-17T23:03:52.574Z,100.00
2022-10-17T23:06:19.765Z,100.00
2022-10-17T23:08:46.845Z,100.00
2022-10-17T23:11:13.530Z,100.00
2022-10-17T23:13:41.035Z,100.00
2022-10-17T23:16:08.659Z,100.00
2022-10-17T23:18:36.637Z,100.00
2022-10-17T23:21:03.120Z,100.00
2022-10-17T23:23:31.504Z,100.00
2022-10-17T23:26:07.511Z,100.00
2022-10-17T23:28:35.784Z,100.00
2022-10-17T23:31:21.587Z,100.00
2022-10-17T23:33:49.861Z,100.00
2022-10-17T23:36:19.205Z,100.00
2022-10-17T23:38:48.359Z,100.00
2022-10-17T23:41:16.029Z,100.00
2022-10-17T23:43:43.364Z,100.00
2022-10-17T23:46:10.744Z,100.00
2022-10-17T23:48:38.618Z,100.00
2022-10-17T23:51:06.061Z,100.00
2022-10-17T23:53:32.602Z,100.00
2022-10-17T23:55:59.271Z,100.00
2022-10-17T23:58:25.793Z,100.00
